Time;durP1;ratioP1;P1;durP2;ratioP2;P2;SDS_P1;SDS_P2;PMS_P1;PMS_P2;Temp;Humidity;BMP_temperature;BMP_pressure;BME280_temperature;BME280_humidity;BME280_pressure;Samples;Min_cycle;Max_cycle;Signal;HPM_P1;HPM_P2
2022/03/15 00:01:25;;;;;;;18.58;4.40;;;;;;;11.45;57.84;101929.34;5041675;28;20060;-64
2022/03/15 00:03:52;;;;;;;14.50;4.32;;;;;;;11.77;56.98;101926.84;5041854;28;20053;-65
2022/03/15 00:06:20;;;;;;;15.15;4.40;;;;;;;11.61;57.63;101919.00;5029675;28;20049;-65
2022/03/15 00:08:48;;;;;;;11.70;3.70;;;;;;;11.70;57.40;101923.59;5054940;28;20057;-64
2022/03/15 00:11:15;;;;;;;13.25;4.05;;;;;;;11.74;57.25;101913.63;5045051;28;20053;-64
2022/03/15 00:13:43;;;;;;;14.45;4.05;;;;;;;11.64;57.46;101915.66;5026550;28;20050;-64
2022/03/15 00:16:10;;;;;;;14.32;3.83;;;;;;;11.75;57.49;101911.72;5045312;28;20057;-64
2022/03/15 00:18:38;;;;;;;13.15;4.50;;;;;;;11.68;57.57;101914.00;5043840;28;20045;-65
2022/03/15 00:21:12;;;;;;;11.30;3.45;;;;;;;12.07;56.81;101906.34;5054334;28;20171;-64
2022/03/15 00:23:39;;;;;;;17.77;4.45;;;;;;;11.83;57.04;101911.06;5046074;28;20079;-64
2022/03/15 00:26:07;;;;;;;15.93;4.25;;;;;;;11.70;57.22;101909.81;5041409;28;20067;-64
2022/03/15 00:28:35;;;;;;;14.77;3.97;;;;;;;11.64;57.65;101910.13;5043207;28;20068;-64
2022/03/15 00:31:02;;;;;;;20.75;4.10;;;;;;;11.74;57.26;101912.81;5045342;28;20100;-64
2022/03/15 00:33:30;;;;;;;15.45;3.80;;;;;;;11.68;57.69;101905.72;5032779;28;20049;-64
2022/03/15 00:35:59;;;;;;;12.30;4.22;;;;;;;11.79;57.73;101908.06;5034924;28;20543;-64
2022/03/15 00:38:28;;;;;;;13.30;4.50;;;;;;;11.62;57.84;101906.84;5034544;28;20052;-65
2022/03/15 00:40:56;;;;;;;13.10;3.72;;;;;;;11.65;57.76;101909.03;5033334;28;20061;-64
2022/03/15 00:43:24;;;;;;;14.48;4.97;;;;;;;11.89;57.08;101905.19;5017267;28;20519;-61
2022/03/15 00:45:51;;;;;;;13.07;3.97;;;;;;;11.62;57.97;101902.16;5033681;28;20065;-61
2022/03/15 00:48:19;;;;;;;12.25;3.40;;;;;;;11.80;57.50;101895.09;5031937;28;20069;-61
2022/03/15 00:50:47;;;;;;;13.00;3.58;;;;;;;11.90;56.90;101894.97;5042534;28;20065;-61
2022/03/15 00:53:14;;;;;;;20.52;4.90;;;;;;;11.63;57.79;101897.47;5042808;28;20049;-63
2022/03/15 00:55:43;;;;;;;13.38;4.32;;;;;;;11.61;58.20;101889.44;5034804;28;20049;-61
2022/03/15 00:58:11;;;;;;;13.75;4.80;;;;;;;11.63;57.99;101897.47;5034753;28;20053;-61
2022/03/15 01:00:39;;;;;;;19.75;4.38;;;;;;;11.49;58.44;101886.25;5020423;28;20053;-61
2022/03/15 01:03:07;;;;;;;12.75;3.83;;;;;;;11.54;58.50;101880.69;5042147;28;20603;-61
2022/03/15 01:05:35;;;;;;;20.83;4.18;;;;;;;11.45;58.87;101874.19;5049167;28;20053;-61
2022/03/15 01:08:02;;;;;;;13.70;3.97;;;;;;;11.50;58.69;101878.81;5025800;28;20070;-61
2022/03/15 01:10:30;;;;;;;14.93;4.70;;;;;;;11.60;58.33;101881.47;5056526;28;20419;-61
2022/03/15 01:13:00;;;;;;;14.48;4.22;;;;;;;11.46;58.83;101880.50;5043859;28;20057;-61
2022/03/15 01:15:42;;;;;;;16.48;4.07;;;;;;;11.44;58.94;101874.47;5048494;28;20611;-61
2022/03/15 01:18:12;;;;;;;14.57;3.95;;;;;;;11.49;58.86;101880.75;5050638;28;20559;-64
2022/03/15 01:20:41;;;;;;;13.23;4.07;;;;;;;11.62;58.69;101869.03;5037066;28;20064;-64
2022/03/15 01:23:08;;;;;;;12.27;3.50;;;;;;;11.69;58.37;101861.25;5022536;28;20092;-61
2022/03/15 01:25:37;;;;;;;11.55;3.60;;;;;;;11.67;58.40;101860.72;5040339;28;20052;-61
2022/03/15 01:28:05;;;;;;;16.60;3.97;;;;;;;11.83;58.06;101864.97;5056927;28;20424;-62
2022/03/15 01:30:32;;;;;;;13.60;4.07;;;;;;;11.71;58.17;101859.03;5053671;28;20060;-60
2022/03/15 01:33:00;;;;;;;13.88;3.97;;;;;;;11.49;59.06;101853.16;5051378;28;20062;-60
2022/03/15 01:35:27;;;;;;;10.45;3.33;;;;;;;11.67;58.71;101857.13;5047934;28;20091;-61
2022/03/15 01:37:54;;;;;;;14.00;3.92;;;;;;;11.73;58.70;101844.94;5044474;28;20060;-65
2022/03/15 01:40:22;;;;;;;15.13;4.25;;;;;;;11.59;58.91;101846.72;5057966;28;20057;-60
2022/03/15 01:42:49;;;;;;;13.68;3.78;;;;;;;11.63;58.94;101834.78;5044162;28;20680;-60
2022/03/15 01:45:16;;;;;;;13.55;3.88;;;;;;;11.65;59.08;101838.13;5047937;28;20049;-61
2022/03/15 01:47:44;;;;;;;11.68;3.70;;;;;;;11.51;59.43;101834.38;5051210;28;20060;-62
2022/03/15 01:50:12;;;;;;;19.45;4.43;;;;;;;11.62;59.31;101824.88;5047305;28;20064;-60
2022/03/15 01:52:40;;;;;;;12.02;3.17;;;;;;;11.77;59.07;101826.69;5041920;28;20121;-60
2022/03/15 01:55:07;;;;;;;15.07;3.65;;;;;;;11.61;59.51;101819.66;5047327;28;20517;-62
2022/03/15 01:57:35;;;;;;;11.73;3.00;;;;;;;11.57;59.88;101815.81;5047969;28;20070;-61
2022/03/15 02:00:04;;;;;;;12.13;3.40;;;;;;;11.59;60.17;101813.59;5046874;28;20083;-61
2022/03/15 02:02:32;;;;;;;9.95;3.42;;;;;;;11.54;60.57;101810.91;5052227;28;20112;-61
2022/03/15 02:04:59;;;;;;;11.40;3.55;;;;;;;11.64;60.31;101808.03;5028159;28;20038;-61
2022/03/15 02:07:27;;;;;;;13.18;4.10;;;;;;;11.73;60.52;101800.78;5040485;28;20514;-62
2022/03/15 02:09:54;;;;;;;12.77;3.42;;;;;;;11.95;59.85;101803.78;5044577;28;20049;-61
2022/03/15 02:12:21;;;;;;;13.05;3.80;;;;;;;11.77;60.54;101810.13;5050760;28;20064;-61
2022/03/15 02:14:49;;;;;;;9.98;3.65;;;;;;;11.61;61.25;101806.66;5049393;28;20641;-61
2022/03/15 02:17:16;;;;;;;10.93;3.53;;;;;;;11.74;61.21;101796.88;5057234;28;20049;-61
2022/03/15 02:19:43;;;;;;;9.57;3.50;;;;;;;11.70;61.42;101793.09;5044528;28;20060;-61
2022/03/15 02:22:11;;;;;;;11.75;3.78;;;;;;;11.55;61.98;101794.06;5053186;28;20057;-61
2022/03/15 02:24:39;;;;;;;9.60;3.88;;;;;;;11.80;61.68;101784.69;5044151;28;20076;-61
2022/03/15 02:27:07;;;;;;;12.73;3.67;;;;;;;11.61;62.57;101787.34;5043491;28;20178;-61
2022/03/15 02:29:34;;;;;;;10.35;3.47;;;;;;;11.56;62.99;101781.88;5043790;28;20048;-62
2022/03/15 02:32:02;;;;;;;12.07;3.65;;;;;;;11.70;62.56;101774.56;5032834;28;20067;-61
2022/03/15 02:34:30;;;;;;;9.95;3.50;;;;;;;11.64;62.75;101772.16;5044409;28;20053;-61
2022/03/15 02:36:57;;;;;;;9.88;4.15;;;;;;;11.69;63.31;101767.41;5030553;28;20048;-61
2022/03/15 02:39:25;;;;;;;12.57;4.13;;;;;;;11.53;63.63;101760.41;5043815;28;20408;-61
2022/03/15 02:41:53;;;;;;;11.82;4.25;;;;;;;11.50;63.84;101762.94;5056841;28;20064;-61
2022/03/15 02:44:22;;;;;;;10.77;4.03;;;;;;;11.53;64.44;101763.16;5041844;28;20057;-61
2022/03/15 02:46:50;;;;;;;9.23;3.28;;;;;;;11.58;64.40;101765.03;5037151;28;20053;-61
2022/03/15 02:49:18;;;;;;;10.35;4.38;;;;;;;11.68;64.27;101763.00;5035232;28;20061;-60
2022/03/15 02:51:45;;;;;;;11.52;4.05;;;;;;;11.65;64.42;101760.84;5037009;28;20054;-61
2022/03/15 02:54:13;;;;;;;12.60;4.60;;;;;;;11.54;64.93;101758.47;5037074;28;20049;-61
2022/03/15 02:56:47;;;;;;;14.40;4.55;;;;;;;11.70;64.45;101748.94;5036927;28;20054;-60
2022/03/15 02:59:14;;;;;;;14.85;4.82;;;;;;;11.52;65.33;101749.66;5035883;28;20619;-61
2022/03/15 03:01:46;;;;;;;13.13;4.80;;;;;;;11.69;64.99;101744.50;5036503;28;20409;-62
2022/03/15 03:04:19;;;;;;;14.52;5.18;;;;;;;11.69;65.16;101741.75;5036176;28;20050;-61
2022/03/15 03:06:47;;;;;;;12.73;4.68;;;;;;;11.74;65.42;101742.50;5040275;28;20049;-60
2022/03/15 03:09:16;;;;;;;11.15;4.65;;;;;;;11.71;65.79;101740.34;5044575;28;20496;-61
2022/03/15 03:11:43;;;;;;;12.70;5.00;;;;;;;11.71;66.70;101745.88;5048642;28;20393;-62
2022/03/15 03:14:13;;;;;;;10.77;5.13;;;;;;;11.35;68.42;101742.69;5048975;28;20049;-61
2022/03/15 03:16:40;;;;;;;13.50;4.57;;;;;;;11.29;69.19;101743.03;5050397;28;20052;-62
2022/03/15 03:19:08;;;;;;;11.73;4.72;;;;;;;11.18;70.38;101741.50;5042710;28;20803;-62
2022/03/15 03:21:36;;;;;;;9.68;4.40;;;;;;;11.30;70.35;101744.69;5052832;28;20061;-61
2022/03/15 03:24:08;;;;;;;13.15;5.00;;;;;;;11.28;70.42;101742.22;5050031;28;20057;-61
2022/03/15 03:26:37;;;;;;;13.75;4.47;;;;;;;11.05;71.95;101740.25;5038146;28;20044;-62
2022/03/15 03:29:09;;;;;;;12.73;5.53;;;;;;;11.26;71.65;101741.69;5055910;28;20677;-62
2022/03/15 03:31:41;;;;;;;10.30;4.30;;;;;;;11.25;72.08;101739.22;5052316;28;20053;-61
2022/03/15 03:34:10;;;;;;;12.98;5.50;;;;;;;10.98;73.47;101741.72;5055725;28;20056;-61
2022/03/15 03:36:37;;;;;;;11.10;4.88;;;;;;;10.86;75.06;101742.09;5056018;28;20045;-62
2022/03/15 03:39:23;;;;;;;13.00;5.18;;;;;;;11.03;74.77;101747.19;5056060;28;20060;-60
2022/03/15 03:41:52;;;;;;;10.25;5.30;;;;;;;10.84;76.15;101741.59;5055491;28;20408;-61
2022/03/15 03:44:19;;;;;;;16.45;6.22;;;;;;;10.78;76.63;101745.50;5054578;28;20056;-62
2022/03/15 03:46:46;;;;;;;11.90;5.80;;;;;;;10.78;77.47;101741.91;5055869;28;20060;-61
2022/03/15 03:49:14;;;;;;;13.25;6.05;;;;;;;10.82;77.65;101740.22;5029176;28;20052;-61
2022/03/15 03:51:42;;;;;;;11.68;5.80;;;;;;;11.11;76.73;101733.59;5041986;28;20049;-61
2022/03/15 03:54:10;;;;;;;15.77;5.50;;;;;;;10.96;77.84;101732.94;5055762;28;20064;-61
2022/03/15 03:56:37;;;;;;;13.73;5.60;;;;;;;10.76;78.58;101733.09;5040753;28;20049;-61
2022/03/15 03:59:04;;;;;;;12.40;6.03;;;;;;;10.75;79.51;101723.22;5055432;28;20052;-61
2022/03/15 04:01:32;;;;;;;14.85;5.35;;;;;;;10.64;80.31;101730.75;5054553;28;20056;-61
2022/03/15 04:04:05;;;;;;;13.35;6.13;;;;;;;10.94;79.87;101719.44;5043093;28;20057;-61
2022/03/15 04:06:33;;;;;;;11.25;6.30;;;;;;;10.58;81.10;101726.41;5034081;28;20062;-62
2022/03/15 04:09:01;;;;;;;12.10;5.63;;;;;;;10.78;80.89;101728.13;5044832;28;20051;-61
2022/03/15 04:11:31;;;;;;;12.93;5.93;;;;;;;10.79;80.78;101716.81;5050897;28;20053;-62
2022/03/15 04:13:59;;;;;;;12.52;6.10;;;;;;;10.53;82.41;101712.66;5045921;28;20068;-61
2022/03/15 04:16:28;;;;;;;11.75;6.28;;;;;;;10.68;82.21;101709.78;5041857;28;20507;-61
2022/03/15 04:18:55;;;;;;;10.73;6.28;;;;;;;10.59;82.97;101703.25;5054583;28;20053;-63
2022/03/15 04:21:24;;;;;;;12.32;6.05;;;;;;;10.78;82.47;101711.59;5049981;28;20519;-62
2022/03/15 04:23:54;;;;;;;11.98;5.97;;;;;;;10.83;81.74;101704.09;5036584;28;20061;-62
2022/03/15 04:26:22;;;;;;;15.93;6.38;;;;;;;10.77;82.50;101707.22;5049801;28;20048;-60
2022/03/15 04:28:49;;;;;;;14.02;6.55;;;;;;;10.80;82.65;101706.63;5047014;28;20053;-61
2022/03/15 04:31:17;;;;;;;14.90;6.38;;;;;;;10.84;82.49;101708.53;5043571;28;20041;-62
2022/03/15 04:33:45;;;;;;;12.82;6.35;;;;;;;10.70;83.29;101701.22;5045821;28;20064;-62
2022/03/15 04:36:12;;;;;;;13.77;6.88;;;;;;;10.90;83.17;101701.84;5033773;28;20053;-61
2022/03/15 04:38:40;;;;;;;12.45;6.90;;;;;;;10.80;83.30;101693.69;5044521;28;20408;-61
2022/03/15 04:41:07;;;;;;;12.38;6.90;;;;;;;10.83;83.42;101693.09;5040502;28;20053;-61
2022/03/15 04:43:35;;;;;;;13.30;7.07;;;;;;;10.96;82.98;101686.91;5027134;28;20068;-61
2022/03/15 04:46:02;;;;;;;11.90;6.47;;;;;;;10.91;83.16;101684.16;5053187;28;20064;-61
2022/03/15 04:48:33;;;;;;;10.38;6.03;;;;;;;10.93;83.26;101692.97;5040099;28;20053;-61
2022/03/15 04:51:05;;;;;;;9.95;6.10;;;;;;;10.83;83.72;101692.25;5043429;28;20045;-61
2022/03/15 04:53:33;;;;;;;13.80;6.55;;;;;;;10.98;83.62;101687.41;5052150;28;20055;-61
2022/03/15 04:56:00;;;;;;;11.25;6.70;;;;;;;11.03;83.41;101692.88;5034935;28;20053;-61
2022/03/15 04:58:27;;;;;;;12.18;6.90;;;;;;;10.99;83.24;101689.06;5049249;28;20049;-61
2022/03/15 05:00:55;;;;;;;13.55;6.50;;;;;;;10.80;84.52;101684.56;5066912;28;20064;-61
2022/03/15 05:03:22;;;;;;;11.63;6.72;;;;;;;10.89;84.79;101680.06;5047915;28;20053;-61
2022/03/15 05:05:50;;;;;;;16.10;7.57;;;;;;;10.95;84.02;101681.66;5034673;28;20050;-61
2022/03/15 05:08:18;;;;;;;11.90;6.97;;;;;;;10.96;84.17;101680.56;5047725;28;20069;-61
2022/03/15 05:13:31;;;;;;;10.93;6.57;;;;;;;11.02;83.89;101684.88;5041476;28;20067;-61
2022/03/15 05:15:58;;;;;;;11.82;7.35;;;;;;;11.08;84.13;101681.78;5054125;28;20064;-62
2022/03/15 05:18:26;;;;;;;12.85;6.63;;;;;;;11.22;83.93;101684.66;5040746;28;20068;-62
2022/03/15 05:20:53;;;;;;;13.00;7.70;;;;;;;11.21;83.97;101680.25;5054281;28;20097;-60
2022/03/15 05:23:21;;;;;;;11.98;7.07;;;;;;;11.15;84.48;101684.19;5044629;28;20068;-61
2022/03/15 05:25:48;;;;;;;15.35;7.30;;;;;;;11.19;84.15;101679.75;5041157;28;20041;-61
2022/03/15 05:28:15;;;;;;;11.02;6.80;;;;;;;11.30;84.57;101689.50;5054605;28;20063;-61
2022/03/15 05:30:43;;;;;;;13.82;7.38;;;;;;;11.34;84.17;101688.66;5050985;28;20393;-61
2022/03/15 05:33:10;;;;;;;12.57;7.47;;;;;;;11.32;84.40;101690.03;5044135;28;20048;-62
2022/03/15 05:35:41;;;;;;;12.68;7.30;;;;;;;11.38;84.08;101686.13;5040651;28;20053;-61
2022/03/15 05:38:09;;;;;;;14.05;7.47;;;;;;;11.42;83.80;101694.63;5075220;28;20052;-61
2022/03/15 05:40:36;;;;;;;11.40;7.53;;;;;;;11.43;84.41;101687.97;5052766;28;20064;-61
2022/03/15 05:43:04;;;;;;;13.20;7.75;;;;;;;11.20;86.07;101687.72;5041923;28;20057;-61
2022/03/15 05:45:31;;;;;;;13.50;8.25;;;;;;;11.28;85.92;101689.81;5053368;28;20057;-61
2022/03/15 05:47:59;;;;;;;12.45;7.88;;;;;;;11.22;86.28;101685.50;5056084;28;20049;-61
2022/03/15 05:50:26;;;;;;;13.57;8.30;;;;;;;11.25;86.00;101690.41;5075652;28;20060;-61
2022/03/15 05:52:53;;;;;;;14.43;8.15;;;;;;;11.44;85.92;101703.44;5057424;28;20049;-61
2022/03/15 05:55:21;;;;;;;15.25;9.10;;;;;;;11.34;85.73;101691.41;5057712;28;20060;-62
2022/03/15 05:57:48;;;;;;;13.93;8.25;;;;;;;11.30;86.46;101693.09;5044361;28;20050;-61
2022/03/15 06:00:16;;;;;;;15.45;8.73;;;;;;;11.34;87.05;101696.91;5044508;28;20056;-61
2022/03/15 06:02:44;;;;;;;13.60;8.10;;;;;;;11.51;86.31;101690.06;5057010;28;20052;-62
2022/03/15 06:05:12;;;;;;;16.45;8.38;;;;;;;11.38;86.08;101701.84;5044678;28;20045;-61
2022/03/15 06:07:47;;;;;;;13.63;8.30;;;;;;;11.30;87.41;101704.13;5042648;28;20045;-61
2022/03/15 06:10:15;;;;;;;12.30;8.20;;;;;;;11.17;88.15;101696.59;5048972;28;20049;-62
2022/03/15 06:12:45;;;;;;;13.77;8.57;;;;;;;11.38;87.73;101708.19;5047887;28;20416;-61
2022/03/15 06:15:16;;;;;;;15.07;8.82;;;;;;;11.25;88.18;101703.38;5057533;28;20065;-60
2022/03/15 06:17:44;;;;;;;14.30;8.73;;;;;;;11.34;88.09;101705.19;5043723;28;20049;-62
2022/03/15 06:20:14;;;;;;;19.02;8.77;;;;;;;11.30;88.08;101709.66;5056955;28;20048;-61
2022/03/15 06:22:46;;;;;;;15.35;8.52;;;;;;;11.20;88.24;101709.78;5042393;28;20056;-66
2022/03/15 06:25:18;;;;;;;14.90;8.77;;;;;;;11.10;89.20;101707.13;5044539;28;20060;-66
2022/03/15 06:27:49;;;;;;;11.85;8.48;;;;;;;11.39;88.54;101698.78;5044264;28;20408;-64
2022/03/15 06:30:16;;;;;;;12.93;8.82;;;;;;;11.22;88.72;101698.44;5056949;28;20056;-64
2022/03/15 06:32:44;;;;;;;13.52;8.88;;;;;;;11.32;88.72;101701.06;5028913;28;20045;-65
2022/03/15 06:35:13;;;;;;;13.90;9.25;;;;;;;11.37;88.46;101701.00;5056709;28;20060;-65
2022/03/15 06:37:45;;;;;;;13.93;9.02;;;;;;;11.40;88.01;101703.19;5057017;28;20049;-65
2022/03/15 06:40:16;;;;;;;13.30;9.25;;;;;;;11.49;87.85;101700.59;5042491;28;20519;-66
2022/03/15 06:42:44;;;;;;;13.13;8.85;;;;;;;11.43;88.36;101702.59;5051009;28;20132;-65
2022/03/15 06:45:12;;;;;;;12.88;8.88;;;;;;;11.28;88.36;101705.53;5039403;28;20053;-65
2022/03/15 06:47:39;;;;;;;13.02;9.35;;;;;;;11.09;89.81;101702.72;5025759;28;20053;-66
2022/03/15 06:50:08;;;;;;;13.60;9.55;;;;;;;11.27;89.75;101698.38;5036441;28;20050;-65
2022/03/15 06:52:36;;;;;;;13.43;9.88;;;;;;;11.33;89.59;101703.53;5036571;28;20049;-65
2022/03/15 06:55:05;;;;;;;15.75;9.68;;;;;;;11.28;89.84;101703.59;5036497;28;20049;-65
2022/03/15 06:57:32;;;;;;;12.43;9.55;;;;;;;11.32;90.03;101698.31;5034425;28;20041;-65
2022/03/15 07:00:00;;;;;;;17.17;10.25;;;;;;;11.33;90.21;101692.50;5063170;28;20048;-65
2022/03/15 07:02:27;;;;;;;13.60;9.52;;;;;;;11.33;89.75;101683.44;5033532;28;20058;-66
2022/03/15 07:04:55;;;;;;;15.77;10.23;;;;;;;11.50;89.17;101678.22;5028834;28;20137;-65
2022/03/15 07:07:23;;;;;;;16.05;10.77;;;;;;;11.19;90.38;101690.78;5035219;28;20065;-65
2022/03/15 07:09:52;;;;;;;13.35;9.95;;;;;;;11.63;90.12;101696.00;5032592;28;20124;-61
2022/03/15 07:12:19;;;;;;;17.85;11.85;;;;;;;11.77;88.76;101703.25;5034283;28;20681;-67
2022/03/15 07:14:47;;;;;;;16.08;11.05;;;;;;;11.92;87.69;101700.31;5034000;28;20046;-66
2022/03/15 07:17:14;;;;;;;13.98;11.30;;;;;;;11.82;87.94;101700.44;5032203;28;20057;-65
2022/03/15 07:19:44;;;;;;;14.15;10.98;;;;;;;11.71;88.51;101698.94;5033788;28;20041;-67
2022/03/15 07:22:11;;;;;;;16.20;13.60;;;;;;;11.86;87.96;101704.25;5063194;28;20153;-65
2022/03/15 07:24:38;;;;;;;16.98;12.85;;;;;;;11.92;87.45;101713.28;5033808;28;20054;-65
2022/03/15 07:27:06;;;;;;;17.88;13.02;;;;;;;11.91;87.95;101709.69;5034893;28;20489;-66
2022/03/15 07:29:34;;;;;;;18.50;13.18;;;;;;;12.02;87.33;101699.31;5033406;28;20052;-65
2022/03/15 07:32:02;;;;;;;18.60;13.77;;;;;;;11.92;87.91;101710.53;5033107;28;20052;-65
2022/03/15 07:34:30;;;;;;;19.52;14.77;;;;;;;11.93;87.89;101717.66;5028396;28;20063;-64
2022/03/15 07:36:57;;;;;;;19.30;14.43;;;;;;;12.00;87.55;101710.66;5034304;28;20064;-65
2022/03/15 07:39:25;;;;;;;19.65;13.98;;;;;;;12.08;87.11;101714.72;5066403;28;20045;-67
2022/03/15 07:41:53;;;;;;;19.98;13.90;;;;;;;12.22;85.96;101704.53;5032801;28;20045;-67
2022/03/15 07:44:21;;;;;;;19.25;14.25;;;;;;;12.34;85.43;101691.88;5031034;28;20052;-66
2022/03/15 07:46:48;;;;;;;17.70;13.55;;;;;;;12.37;85.26;101693.25;5032348;28;20061;-68
2022/03/15 07:49:20;;;;;;;17.35;13.68;;;;;;;12.17;85.05;101694.38;5028022;28;20054;-67
2022/03/15 07:51:49;;;;;;;17.35;13.88;;;;;;;12.15;85.37;101698.59;5033379;28;20042;-67
2022/03/15 07:54:16;;;;;;;16.58;13.90;;;;;;;12.12;85.56;101688.94;5033724;28;20053;-67
2022/03/15 07:56:47;;;;;;;17.40;13.65;;;;;;;12.07;86.26;101685.44;5035010;28;20045;-67
2022/03/15 07:59:18;;;;;;;16.15;13.45;;;;;;;12.16;86.43;101694.69;5033442;28;20055;-66
2022/03/15 08:01:46;;;;;;;15.93;13.27;;;;;;;12.17;86.32;101694.38;5034607;28;20068;-66
2022/03/15 08:04:13;;;;;;;16.38;13.25;;;;;;;12.19;86.29;101683.03;5064565;28;20076;-65
2022/03/15 08:06:40;;;;;;;18.15;12.93;;;;;;;12.20;86.56;101679.16;5033161;28;20112;-66
2022/03/15 08:09:08;;;;;;;18.65;12.80;;;;;;;12.21;86.40;101681.63;5058529;28;20049;-65
2022/03/15 08:11:35;;;;;;;17.63;12.95;;;;;;;12.08;86.50;101689.84;5025472;28;20243;-68
2022/03/15 08:14:03;;;;;;;17.52;12.88;;;;;;;11.83;87.51;101698.50;5033184;28;20052;-70
2022/03/15 08:16:30;;;;;;;16.65;13.13;;;;;;;11.85;87.71;101688.81;5033408;28;20049;-70
2022/03/15 08:18:57;;;;;;;18.45;13.30;;;;;;;11.93;87.74;101685.38;5028527;28;20049;-68
2022/03/15 08:21:26;;;;;;;15.55;12.70;;;;;;;11.94;87.53;101680.69;5032439;28;20053;-69
2022/03/15 08:23:53;;;;;;;14.43;12.10;;;;;;;12.04;88.10;101683.28;5033302;28;20396;-68
2022/03/15 08:26:21;;;;;;;16.75;12.80;;;;;;;12.16;86.44;101676.19;5029824;28;20045;-70
2022/03/15 08:28:49;;;;;;;14.48;12.25;;;;;;;12.07;86.69;101679.91;5033683;28;20528;-69
2022/03/15 08:31:16;;;;;;;16.35;13.38;;;;;;;12.08;86.85;101682.38;5028073;28;20049;-69
2022/03/15 08:33:44;;;;;;;16.10;13.05;;;;;;;12.13;86.95;101687.81;5032887;28;20094;-68
2022/03/15 08:36:15;;;;;;;14.88;13.23;;;;;;;12.13;86.39;101687.00;5032562;28;20054;-69
2022/03/15 08:38:45;;;;;;;15.05;13.02;;;;;;;12.24;85.77;101688.47;5031640;28;20042;-68
2022/03/15 08:41:12;;;;;;;15.07;13.32;;;;;;;12.31;85.68;101698.03;5030014;28;20076;-69
2022/03/15 08:43:40;;;;;;;14.45;12.43;;;;;;;12.17;86.18;101699.91;5031459;28;20060;-68
2022/03/15 08:46:07;;;;;;;13.90;12.10;;;;;;;12.29;86.03;101702.22;5033374;28;20049;-69
2022/03/15 08:48:35;;;;;;;15.35;12.00;;;;;;;12.44;85.20;101702.78;5032803;28;20432;-69
2022/03/15 08:51:02;;;;;;;15.45;10.90;;;;;;;12.52;84.33;101711.53;5032619;28;20049;-68
2022/03/15 08:53:33;;;;;;;14.45;11.55;;;;;;;12.35;84.60;101709.28;5029255;28;20049;-69
2022/03/15 08:56:02;;;;;;;14.02;11.65;;;;;;;12.46;84.78;101713.53;5026164;28;20057;-69
2022/03/15 08:58:29;;;;;;;16.85;12.02;;;;;;;12.31;85.31;101719.28;5032931;28;20523;-69
2022/03/15 09:00:56;;;;;;;18.38;13.63;;;;;;;12.22;86.08;101712.84;5026390;28;20049;-71
2022/03/15 09:03:24;;;;;;;21.98;13.48;;;;;;;12.24;86.75;101703.09;5029507;28;20042;-70
2022/03/15 09:05:52;;;;;;;18.63;15.07;;;;;;;12.02;87.58;101705.66;5024933;28;20064;-71
2022/03/15 09:08:22;;;;;;;21.10;16.08;;;;;;;12.19;87.58;101716.16;5028025;28;20048;-70
2022/03/15 09:10:50;;;;;;;27.20;16.95;;;;;;;12.38;86.71;101712.28;5034283;28;20057;-71
2022/03/15 09:13:17;;;;;;;19.15;14.20;;;;;;;12.37;86.51;101720.88;5032203;28;20053;-70
2022/03/15 09:15:44;;;;;;;18.73;14.20;;;;;;;12.19;87.23;101721.69;5032302;28;20046;-71
2022/03/15 09:18:13;;;;;;;18.80;14.40;;;;;;;11.80;88.18;101718.44;5029211;28;20049;-66
2022/03/15 09:20:42;;;;;;;18.20;15.05;;;;;;;11.68;89.81;101718.03;5066170;28;20512;-70
2022/03/15 09:23:10;;;;;;;19.85;15.75;;;;;;;11.67;90.52;101713.63;5030543;28;20068;-70
2022/03/15 09:25:37;;;;;;;18.85;16.38;;;;;;;11.66;90.96;101723.88;5035177;28;20049;-69
2022/03/15 09:28:05;;;;;;;17.98;15.13;;;;;;;11.65;90.31;101721.38;5034360;28;20519;-70
2022/03/15 09:30:34;;;;;;;19.83;14.95;;;;;;;11.64;91.28;101711.44;5037715;28;20037;-63
2022/03/15 09:33:02;;;;;;;18.90;14.48;;;;;;;11.74;91.07;101711.31;5038232;28;20053;-61
2022/03/15 09:35:29;;;;;;;19.58;14.50;;;;;;;11.82;90.67;101711.47;5032123;28;20046;-70
2022/03/15 09:37:57;;;;;;;17.73;14.80;;;;;;;11.86;90.83;101717.22;5065046;28;20087;-70
2022/03/15 09:40:25;;;;;;;20.67;16.02;;;;;;;11.77;90.94;101708.00;5067739;28;20049;-70
2022/03/15 09:42:59;;;;;;;17.33;14.20;;;;;;;11.91;90.54;101700.59;5034968;28;20525;-70
2022/03/15 09:45:30;;;;;;;16.02;13.93;;;;;;;12.14;90.34;101696.91;5025641;28;20433;-61
2022/03/15 09:47:58;;;;;;;16.00;14.10;;;;;;;12.16;89.02;101689.16;5039030;28;20057;-61
2022/03/15 09:50:26;;;;;;;20.77;14.13;;;;;;;12.31;88.78;101692.50;5033696;28;20053;-61
2022/03/15 09:52:55;;;;;;;22.83;15.40;;;;;;;12.12;89.01;101686.19;5035709;28;20050;-60
2022/03/15 09:55:23;;;;;;;17.42;14.45;;;;;;;12.34;88.70;101683.59;5064734;28;20056;-61
2022/03/15 09:57:51;;;;;;;19.67;14.00;;;;;;;12.27;88.20;101676.84;5027719;28;20069;-61
2022/03/15 10:00:19;;;;;;;17.48;13.90;;;;;;;12.27;88.23;101683.16;5033494;28;20045;-61
2022/03/15 10:02:47;;;;;;;18.20;14.82;;;;;;;12.23;88.77;101679.38;5031445;28;20438;-61
2022/03/15 10:05:14;;;;;;;19.63;15.48;;;;;;;12.30;88.56;101679.00;5036429;28;20144;-60
2022/03/15 10:07:42;;;;;;;21.00;13.90;;;;;;;12.59;87.80;101671.28;5034838;28;20528;-61
2022/03/15 10:10:11;;;;;;;24.65;15.57;;;;;;;12.23;88.27;101684.06;5031556;28;20053;-60
2022/03/15 10:12:39;;;;;;;17.92;15.05;;;;;;;12.30;89.17;101682.59;5018212;28;20519;-61
2022/03/15 10:15:19;;;;;;;22.88;16.10;;;;;;;12.57;87.89;101681.81;5066158;28;20053;-61
2022/03/15 10:17:49;;;;;;;19.10;15.82;;;;;;;12.55;88.12;101681.34;5028368;28;20072;-60
2022/03/15 10:20:18;;;;;;;46.65;17.67;;;;;;;12.24;88.42;101685.72;5030200;28;20058;-60
2022/03/15 10:22:59;;;;;;;59.33;20.25;;;;;;;12.04;89.39;101675.81;5020764;28;20046;-60
2022/03/15 10:25:34;;;;;;;47.60;18.65;;;;;;;12.30;89.48;101684.50;5036391;28;20053;-61
2022/03/15 10:28:04;;;;;;;49.53;17.50;;;;;;;12.46;88.45;101675.66;5033092;28;20533;-61
2022/03/15 10:30:32;;;;;;;40.45;17.90;;;;;;;12.24;88.72;101669.97;5024708;28;20516;-61
2022/03/15 10:33:00;;;;;;;23.35;14.75;;;;;;;12.22;87.62;101668.63;5036670;28;20056;-61
2022/03/15 10:35:29;;;;;;;25.95;15.25;;;;;;;12.30;88.06;101674.28;5032347;28;20049;-61
2022/03/15 10:37:57;;;;;;;20.27;15.70;;;;;;;12.29;87.94;101671.84;5029394;28;20520;-61
2022/03/15 10:40:37;;;;;;;20.55;14.38;;;;;;;11.87;88.53;101672.75;5019593;28;20057;-62
2022/03/15 10:43:06;;;;;;;22.00;13.90;;;;;;;11.92;88.96;101674.63;5030238;28;20515;-60
2022/03/15 10:45:34;;;;;;;24.48;14.32;;;;;;;12.10;87.46;101671.84;5027465;28;20045;-61
2022/03/15 10:48:13;;;;;;;18.58;13.50;;;;;;;12.16;87.46;101667.91;5029916;28;20780;-61
2022/03/15 10:50:50;;;;;;;19.83;13.52;;;;;;;12.08;87.67;101660.28;5035765;28;20505;-61
2022/03/15 10:53:18;;;;;;;17.90;13.80;;;;;;;12.47;86.66;101654.38;5034132;28;20535;-61
2022/03/15 10:55:45;;;;;;;18.30;14.18;;;;;;;12.53;85.47;101653.19;5031735;28;20052;-61
2022/03/15 10:58:21;;;;;;;21.05;14.40;;;;;;;12.58;84.88;101655.03;5029083;28;20065;-61
2022/03/15 11:00:53;;;;;;;21.80;14.52;;;;;;;12.75;84.03;101653.31;5027281;28;20053;-61
2022/03/15 11:03:25;;;;;;;19.58;11.98;;;;;;;12.70;83.20;101660.88;5034323;28;20088;-62
2022/03/15 11:05:57;;;;;;;19.15;11.95;;;;;;;12.56;83.30;101655.31;5032226;28;20049;-61
2022/03/15 11:08:48;;;;;;;17.33;12.05;;;;;;;12.35;83.77;101656.81;5031892;28;20057;-63
2022/03/15 11:11:27;;;;;;;20.05;13.38;;;;;;;12.45;84.15;101659.38;5049299;28;20046;-62
2022/03/15 11:14:06;;;;;;;15.15;11.25;;;;;;;12.78;82.24;101646.38;5047518;28;20061;-70
2022/03/15 11:16:36;;;;;;;16.92;10.82;;;;;;;12.89;81.21;101640.31;5027877;28;20050;-62
2022/03/15 11:19:05;;;;;;;16.23;10.38;;;;;;;12.88;81.08;101640.63;5030443;28;20048;-62
2022/03/15 11:21:34;;;;;;;15.32;11.18;;;;;;;12.34;82.39;101649.66;5013572;28;20037;-61
2022/03/15 11:24:03;;;;;;;18.00;10.50;;;;;;;12.20;83.56;101654.31;5027777;28;20068;-61